Boles, Illinois
Current Conditions -  °F | °C
As of 4:35 PM on Monday 24 Nov 2014 (Local Time) from KM30 Reporting Station
Broken Clouds Broken Clouds  
Wind Chill: 47°   Ceiling: 6000
Heat Index: 49°   Visibility: 10mi
Dew Point: 34°   Wind: 6mph
Humidity: 56%   Direction: 220°SW
Pressure: 29.85"   Gusts: NA
Location:  37.42°N, 88.97°W
Report Text: KM30 242235Z AUTO 22005KT 10SM SCT050 BKN060 09/01 A2985 RMK AO2 T00940011
Loading
Personal Weather Stations






























Interactive Weather Map New forecast layout! Learn more

10-Day Weather Forecast

Advertisements
Track Severe Weather on mobile